Minnekata, South Dakota
Current Conditions -  °F | °C
As of 2:53 PM on Sunday 23 Nov 2014 (Local Time) from KCUT Reporting Station
Overcast Overcast  
Wind Chill: 16°   Ceiling: 4200
Heat Index: 28°   Visibility: 10mi
Dew Point: 15°   Wind: 16mph
Humidity: 58%   Direction: 290°WNW
Pressure: 29.67"   Gusts: 35mph
Location:  43.346°N, 103.483°W
Report Text: KCUT 232153Z AUTO 29014G30KT 10SM OVC042 M02/M09 A2967 RMK AO2 PK WND 33035/2100 SNB34E42 SLP073 P0000 T10221094
Loading
Personal Weather Stations






























Interactive Weather Map New forecast layout! Learn more

10-Day Weather Forecast

Advertisements
Track Severe Weather on mobile